createdAt,value
2023-01-17T00:00:15.933Z,92.10
2023-01-17T00:05:12.285Z,92.01
2023-01-17T00:09:48.533Z,92.03
2023-01-17T00:14:06.045Z,92.04
2023-01-17T00:18:23.703Z,92.02
2023-01-17T00:23:02.610Z,91.89
2023-01-17T00:27:20.064Z,91.79
2023-01-17T00:31:37.751Z,91.81
2023-01-17T00:35:57.882Z,91.81
2023-01-17T00:40:16.775Z,91.78
2023-01-17T00:44:52.829Z,91.72
2023-01-17T00:49:29.381Z,91.73
2023-01-17T00:54:05.679Z,91.34
2023-01-17T00:58:41.979Z,90.53
2023-01-17T01:03:18.191Z,89.56
2023-01-17T01:07:54.807Z,89.84
2023-01-17T01:12:31.149Z,89.92
2023-01-17T01:17:29.508Z,90.13
2023-01-17T01:22:24.018Z,90.44
2023-01-17T01:27:00.110Z,90.70
2023-01-17T01:31:36.467Z,90.71
2023-01-17T01:35:55.968Z,90.58
2023-01-17T01:40:28.827Z,90.90
2023-01-17T01:45:18.091Z,90.81
2023-01-17T01:49:42.973Z,89.83
2023-01-17T01:54:28.139Z,89.22
2023-01-17T01:58:55.445Z,88.98
2023-01-17T02:03:32.747Z,89.40
2023-01-17T02:08:08.837Z,89.10
2023-01-17T02:12:26.571Z,89.50
2023-01-17T02:17:21.742Z,89.45
2023-01-17T02:22:30.340Z,89.43
2023-01-17T02:26:56.042Z,89.62
2023-01-17T02:31:33.085Z,89.68
2023-01-17T02:36:17.645Z,90.69
2023-01-17T02:40:44.759Z,91.21
2023-01-17T02:45:03.265Z,91.59
2023-01-17T02:49:27.487Z,91.72
2023-01-17T02:54:37.802Z,92.16
2023-01-17T02:59:18.173Z,92.35
2023-01-17T03:03:55.440Z,92.66
2023-01-17T03:08:13.601Z,93.02
2023-01-17T03:12:33.938Z,93.11
2023-01-17T03:16:51.711Z,93.20
2023-01-17T03:21:09.255Z,93.31
2023-01-17T03:25:27.673Z,93.44
2023-01-17T03:29:45.152Z,93.52
2023-01-17T03:34:02.957Z,93.64
2023-01-17T03:38:21.183Z,93.71
2023-01-17T03:42:39.876Z,93.74
2023-01-17T03:46:57.554Z,93.79
2023-01-17T03:51:15.317Z,93.75
2023-01-17T03:55:32.972Z,93.68
2023-01-17T03:59:50.555Z,93.56
2023-01-17T04:04:08.403Z,93.53
2023-01-17T04:08:25.966Z,93.43
2023-01-17T04:12:43.642Z,93.37
2023-01-17T04:17:01.580Z,93.42
2023-01-17T04:21:19.258Z,93.56
2023-01-17T04:25:37.333Z,93.66
2023-01-17T04:29:55.012Z,93.72
2023-01-17T04:34:12.553Z,93.77
2023-01-17T04:38:30.691Z,93.82
2023-01-17T04:42:48.767Z,93.78
2023-01-17T04:47:06.391Z,93.83
2023-01-17T04:51:23.943Z,93.84
2023-01-17T04:55:41.586Z,93.91
2023-01-17T04:59:59.124Z,93.92
2023-01-17T05:04:16.930Z,93.96
2023-01-17T05:08:34.445Z,93.95
2023-01-17T05:13:00.126Z,93.94
2023-01-17T05:17:17.617Z,93.96
2023-01-17T05:21:35.329Z,94.00
2023-01-17T05:25:52.808Z,93.96
2023-01-17T05:30:11.533Z,93.91
2023-01-17T05:34:29.299Z,93.93
2023-01-17T05:38:46.892Z,93.91
2023-01-17T05:43:05.101Z,93.92
2023-01-17T05:47:22.600Z,93.90
2023-01-17T05:51:40.170Z,93.93
2023-01-17T05:55:57.768Z,93.84
2023-01-17T06:00:17.031Z,93.85
2023-01-17T06:04:34.580Z,93.82
2023-01-17T06:08:52.225Z,93.78
2023-01-17T06:13:15.441Z,93.76
2023-01-17T06:17:33.066Z,93.77
2023-01-17T06:21:50.587Z,93.68
2023-01-17T06:26:09.194Z,93.66
2023-01-17T06:30:26.917Z,93.67
2023-01-17T06:34:44.424Z,93.63
2023-01-17T06:39:03.001Z,93.56
2023-01-17T06:43:20.481Z,93.58
2023-01-17T06:47:39.441Z,93.51
2023-01-17T06:51:57.008Z,93.48
2023-01-17T06:56:14.479Z,93.46
2023-01-17T07:00:35.383Z,93.44
2023-01-17T07:04:52.984Z,93.41
2023-01-17T07:09:10.479Z,93.34
2023-01-17T07:13:28.374Z,93.24
2023-01-17T07:17:45.970Z,93.23
2023-01-17T07:22:03.423Z,93.20
2023-01-17T07:26:21.114Z,93.09
2023-01-17T07:30:38.591Z,92.99
2023-01-17T07:34:58.184Z,92.93
2023-01-17T07:39:16.326Z,92.94
2023-01-17T07:43:35.729Z,92.88
2023-01-17T07:47:53.121Z,92.82
2023-01-17T07:52:10.851Z,92.78
2023-01-17T07:56:28.169Z,92.68
2023-01-17T08:00:45.889Z,92.65
2023-01-17T08:05:03.373Z,92.70
2023-01-17T08:09:20.923Z,92.65
2023-01-17T08:13:38.307Z,92.50
2023-01-17T08:17:57.947Z,92.28
2023-01-17T08:22:15.287Z,92.38
2023-01-17T08:26:32.889Z,92.32
2023-01-17T08:30:50.207Z,92.56
2023-01-17T08:35:09.148Z,92.75
2023-01-17T08:39:27.719Z,92.39
2023-01-17T08:43:48.248Z,92.19
2023-01-17T08:48:05.688Z,91.36
2023-01-17T08:52:23.153Z,91.71
2023-01-17T08:56:42.857Z,91.44
2023-01-17T09:01:02.786Z,91.68
2023-01-17T09:05:20.649Z,91.35
2023-01-17T09:09:38.199Z,91.75
2023-01-17T09:13:55.599Z,90.65
2023-01-17T09:18:13.064Z,90.10
2023-01-17T09:22:30.585Z,90.86
2023-01-17T09:26:47.935Z,90.15
2023-01-17T09:31:07.639Z,91.01
2023-01-17T09:35:25.273Z,87.66
2023-01-17T09:39:42.768Z,87.05
2023-01-17T09:44:02.051Z,87.93
2023-01-17T09:48:27.279Z,85.74
2023-01-17T09:52:45.147Z,85.73
2023-01-17T09:57:36.287Z,85.49
2023-01-17T10:01:59.503Z,86.06
2023-01-17T10:06:19.542Z,83.67
2023-01-17T10:11:09.603Z,82.07
2023-01-17T10:15:32.894Z,82.64
2023-01-17T10:20:04.143Z,82.68
2023-01-17T10:24:56.743Z,81.23
2023-01-17T10:29:20.183Z,81.28
2023-01-17T10:33:51.904Z,80.41
2023-01-17T10:38:12.704Z,79.97
2023-01-17T10:42:39.022Z,80.60
2023-01-17T10:47:00.405Z,81.37
2023-01-17T10:51:43.298Z,79.63
2023-01-17T10:56:01.304Z,77.12
2023-01-17T11:00:28.925Z,76.99
2023-01-17T11:04:50.371Z,74.85
2023-01-17T11:09:11.982Z,69.79
2023-01-17T11:13:38.777Z,63.52
2023-01-17T11:18:06.561Z,60.35
2023-01-17T11:22:25.060Z,59.56
2023-01-17T11:26:47.889Z,56.55
2023-01-17T11:31:10.121Z,57.85
2023-01-17T11:35:35.523Z,57.09
2023-01-17T11:40:06.217Z,55.23
2023-01-17T11:44:32.488Z,54.01
2023-01-17T11:48:53.447Z,52.38
2023-01-17T11:53:31.318Z,53.33
2023-01-17T11:57:50.681Z,53.15
2023-01-17T12:02:37.421Z,52.05
2023-01-17T12:07:22.753Z,49.13
2023-01-17T12:12:09.275Z,47.19
2023-01-17T12:17:14.764Z,46.91
2023-01-17T12:21:50.564Z,48.57
2023-01-17T12:26:20.827Z,49.73
2023-01-17T12:30:41.367Z,45.82
2023-01-17T12:35:19.205Z,41.29
2023-01-17T12:39:40.273Z,42.78
2023-01-17T12:44:00.192Z,43.97
2023-01-17T12:48:19.763Z,42.25
2023-01-17T12:52:45.981Z,42.90
2023-01-17T12:57:14.413Z,41.05
2023-01-17T13:01:40.065Z,42.24
2023-01-17T13:05:58.155Z,42.01
2023-01-17T13:10:31.148Z,38.51
2023-01-17T13:14:49.353Z,41.87
2023-01-17T13:19:16.753Z,42.94
2023-01-17T13:23:59.486Z,46.96
2023-01-17T13:28:28.148Z,52.25
2023-01-17T13:33:07.305Z,54.03
2023-01-17T13:37:49.060Z,56.22
2023-01-17T13:42:29.919Z,57.65
2023-01-17T13:47:19.262Z,58.01
2023-01-17T13:52:03.943Z,58.96
2023-01-17T13:56:27.333Z,60.32
2023-01-17T14:00:44.857Z,61.48
2023-01-17T14:05:24.001Z,61.81
2023-01-17T14:09:43.101Z,62.17
2023-01-17T14:14:39.017Z,63.00
2023-01-17T14:18:56.661Z,63.53
2023-01-17T14:23:28.916Z,64.12
2023-01-17T14:27:49.592Z,65.49
2023-01-17T14:32:10.849Z,66.08
2023-01-17T14:36:33.057Z,66.58
2023-01-17T14:41:01.011Z,67.17
2023-01-17T14:45:26.567Z,68.12
2023-01-17T14:49:44.617Z,69.08
2023-01-17T14:54:03.455Z,69.85
2023-01-17T14:58:24.897Z,70.57
2023-01-17T15:02:45.550Z,71.41
2023-01-17T15:07:03.572Z,72.62
2023-01-17T15:11:25.791Z,74.27
2023-01-17T15:15:43.303Z,76.38
2023-01-17T15:20:03.523Z,79.09
2023-01-17T15:24:29.111Z,79.96
2023-01-17T15:28:47.026Z,81.38
2023-01-17T15:33:04.661Z,82.33
2023-01-17T15:37:36.037Z,82.43
2023-01-17T15:41:59.519Z,83.68
2023-01-17T15:46:32.443Z,83.72
2023-01-17T15:50:57.980Z,84.23
2023-01-17T15:55:48.067Z,84.96
2023-01-17T16:00:20.987Z,85.71
2023-01-17T16:04:42.403Z,85.76
2023-01-17T16:08:59.808Z,86.09
2023-01-17T16:13:17.197Z,85.76
2023-01-17T16:17:35.246Z,86.60
2023-01-17T16:21:52.655Z,87.00
2023-01-17T16:26:11.092Z,87.21
2023-01-17T16:30:29.456Z,87.46
2023-01-17T16:34:46.993Z,87.76
2023-01-17T16:39:04.699Z,88.32
2023-01-17T16:43:23.026Z,88.24
2023-01-17T16:47:45.107Z,87.75
2023-01-17T16:52:02.702Z,88.24
2023-01-17T16:56:20.401Z,88.50
2023-01-17T17:00:40.037Z,88.06
2023-01-17T17:04:57.435Z,87.93
2023-01-17T17:09:15.018Z,87.73
2023-01-17T17:13:35.506Z,87.91
2023-01-17T17:17:55.110Z,88.29
2023-01-17T17:22:12.634Z,88.42
2023-01-17T17:26:32.398Z,88.13
2023-01-17T17:30:49.898Z,88.42
2023-01-17T17:35:07.672Z,88.18
2023-01-17T17:39:25.050Z,88.18
2023-01-17T17:43:42.675Z,88.72
2023-01-17T17:48:00.413Z,87.77
2023-01-17T17:52:17.988Z,87.42
2023-01-17T17:56:36.376Z,87.40
2023-01-17T18:00:54.267Z,87.32
2023-01-17T18:05:11.691Z,87.32
2023-01-17T18:09:29.277Z,87.36
2023-01-17T18:13:48.295Z,87.70
2023-01-17T18:18:05.677Z,87.30
2023-01-17T18:22:23.338Z,87.21
2023-01-17T18:27:00.930Z,87.09
2023-01-17T18:31:18.477Z,87.09
2023-01-17T18:35:35.979Z,87.27
2023-01-17T18:39:53.394Z,87.23
2023-01-17T18:44:12.016Z,87.24
2023-01-17T18:48:29.503Z,87.15
2023-01-17T18:52:46.977Z,87.08
2023-01-17T18:57:04.403Z,87.38
2023-01-17T19:01:25.434Z,87.39
2023-01-17T19:05:42.360Z,87.35
2023-01-17T19:10:00.148Z,86.81
2023-01-17T19:14:17.605Z,86.43
2023-01-17T19:18:35.705Z,86.59
2023-01-17T19:22:53.748Z,86.63
2023-01-17T19:27:13.159Z,86.71
2023-01-17T19:31:32.412Z,86.29
2023-01-17T19:35:49.915Z,86.06
2023-01-17T19:40:08.683Z,84.99
2023-01-17T19:44:26.152Z,85.06
2023-01-17T19:48:43.582Z,85.26
2023-01-17T19:53:00.879Z,85.35
2023-01-17T19:57:22.347Z,85.22
2023-01-17T20:01:39.940Z,85.13
2023-01-17T20:05:57.592Z,84.84
2023-01-17T20:10:15.096Z,83.91
2023-01-17T20:14:32.818Z,83.43
2023-01-17T20:18:50.348Z,83.18
2023-01-17T20:23:08.738Z,82.99
2023-01-17T20:27:26.692Z,83.11
2023-01-17T20:31:45.293Z,83.41
2023-01-17T20:36:09.965Z,82.99
2023-01-17T20:40:27.379Z,83.15
2023-01-17T20:44:45.574Z,82.85
2023-01-17T20:49:06.369Z,82.53
2023-01-17T20:53:23.910Z,82.25
2023-01-17T20:57:41.518Z,81.92
2023-01-17T21:01:59.177Z,81.80
2023-01-17T21:06:16.853Z,81.66
2023-01-17T21:10:33.954Z,81.87
2023-01-17T21:14:51.572Z,82.22
2023-01-17T21:19:12.207Z,81.61
2023-01-17T21:23:29.890Z,81.15
2023-01-17T21:27:47.603Z,80.54
2023-01-17T21:32:05.353Z,80.42
2023-01-17T21:36:25.692Z,80.27
2023-01-17T21:40:44.243Z,80.48
2023-01-17T21:45:01.805Z,81.21
2023-01-17T21:49:19.336Z,81.16
2023-01-17T21:53:38.298Z,82.02
2023-01-17T21:58:14.293Z,82.44
2023-01-17T22:02:32.044Z,81.91
2023-01-17T22:06:49.366Z,82.15
2023-01-17T22:11:09.147Z,82.25
2023-01-17T22:15:26.509Z,82.65
2023-01-17T22:19:46.099Z,82.59
2023-01-17T22:24:03.628Z,82.50
2023-01-17T22:28:21.285Z,82.77
2023-01-17T22:32:39.506Z,82.83
2023-01-17T22:36:56.977Z,82.85
2023-01-17T22:41:17.009Z,82.99
2023-01-17T22:45:34.613Z,83.17
2023-01-17T22:49:51.997Z,83.37
2023-01-17T22:54:11.610Z,83.20
2023-01-17T22:58:29.746Z,83.13
2023-01-17T23:02:48.448Z,82.99
2023-01-17T23:07:05.924Z,83.29
2023-01-17T23:11:39.437Z,83.38
2023-01-17T23:16:15.457Z,83.59
2023-01-17T23:20:32.991Z,83.87
2023-01-17T23:24:59.435Z,84.09
2023-01-17T23:29:16.854Z,84.32
2023-01-17T23:33:34.297Z,84.74
2023-01-17T23:38:10.391Z,84.97
2023-01-17T23:42:46.397Z,84.92
2023-01-17T23:47:04.005Z,85.27
2023-01-17T23:51:21.450Z,85.60
2023-01-17T23:55:40.760Z,85.58
2023-01-17T23:59:58.183Z,85.80
